• Join FlightAware (Why Join?)
  • Login
  • US Flag 
03:15AM EDT


 

Airport Tracker/Info


-or-


 

Live Flight TrackerFlight Track Log ✈ SWA1725 ✈ 08-Apr-2013 ✈ KSMF - KMDW

Flight Track Log - Related Links

Times and Time Zones

All times are in EDT time to prevent confusion due to time zone crossing. See the SWA1725 flight status page for this flight to view local times or setup timezone preferences in your user account.

Time Position Orientation Groundspeed Altitude Reporting Facility
EDT Latitude Longitude Course Direction KTS MPH feet Rate Location/Type
05:08PM 38.7333 -121.6000 90° East 155 178 1,900  Level Northern Cal TRACON
05:09PM 38.7333 -121.5167 90° East 236 272 3,800 2,520 Climbing Northern Cal TRACON
05:10PM 38.7333 -121.4333 90° East 247 284 7,000 2,700 Climbing Northern Cal TRACON
05:11PM 38.7333 -121.3333 90° East 277 319 9,200 2,280 Climbing Northern Cal TRACON
05:12PM 38.7333 -121.2500 90° East 286 329 11,600 2,580 Climbing Northern Cal TRACON
05:14PM 38.8067 -121.1264 53° Northeast 271 312 16,200 1,980 Climbing Oakland Center
05:15PM 38.7992 -120.9908 94° East 372 428 17,000 1,440 Climbing Oakland Center
05:16PM 38.7886 -120.8375 95° East 415 478 19,200 1,980 Climbing Oakland Center
05:17PM 38.7792 -120.6767 94° East 445 512 21,100 1,920 Climbing Oakland Center
05:18PM 38.7681 -120.5119 95° East 458 527 23,200 1,860 Climbing Oakland Center
05:19PM 38.7561 -120.3436 95° East 468 539 25,000 1,620 Climbing Oakland Center
05:20PM 38.7450 -120.1706 95° East 482 555 26,500 1,620 Climbing Oakland Center
05:21PM 38.7314 -119.9939 96° East 493 567 28,400 2,700 Climbing Oakland Center
05:22PM 38.7158 -119.8283 97° East 474 545 32,000 2,640 Climbing Oakland Center
05:23PM 38.7064 -119.6814 95° East 428 493 33,800 1,080 Climbing Oakland Center
05:24PM 38.6953 -119.5289 95° East 431 496 34,300 540 Climbing Oakland Center
05:25PM 38.6769 -119.3339 97° East 461 531 34,900 780 Climbing Oakland Center
05:26PM 38.6636 -119.1711 96° East 463 533 35,900 840 Climbing Oakland Center
05:27PM 38.6508 -119.0081 96° East 465 535 36,700 540 Climbing Oakland Center
05:28PM 38.6375 -118.8428 96° East 470 541 37,000 120 Climbing Oakland Center
05:29PM 38.6225 -118.6736 96° East 479 551 37,000  Level Oakland Center
05:30PM 38.6078 -118.5022 96° East 486 559 37,000  Level Oakland Center
05:31PM 38.5931 -118.3308 96° East 488 562 37,000  Level Oakland Center
05:32PM 38.5772 -118.1606 97° East 487 560 37,000  Level Oakland Center
05:33PM 38.5728 -117.9886 92° East 485 558 37,000  Level Oakland Center
05:34PM 38.5992 -117.8233 78° East 472 543 37,000  Level Oakland Center
05:35PM 38.6242 -117.6569 79° East 473 544 37,000  Level Oakland Center
05:36PM 38.6442 -117.5236 79° East 473 544 37,000  Level Salt Lake Center
05:37PM 38.6694 -117.3561 79° East 476 548 37,000  Level Salt Lake Center
05:38PM 38.6939 -117.1886 79° East 476 548 37,000  Level Salt Lake Center
05:39PM 38.7247 -116.9883 79° East 475 547 37,000  Level Salt Lake Center
05:40PM 38.7494 -116.8231 79° East 472 543 37,000  Level Salt Lake Center
05:41PM 38.7736 -116.6556 79° East 473 544 37,000  Level Salt Lake Center
05:42PM 38.7978 -116.4917 79° East 471 542 37,000  Level Salt Lake Center
05:43PM 38.8214 -116.3267 80° East 469 540 37,000  Level Salt Lake Center
05:44PM 38.8447 -116.1614 80° East 470 541 37,000  Level Salt Lake Center
05:45PM 38.8678 -115.9964 80° East 470 541 37,000  Level Salt Lake Center
05:46PM 38.8906 -115.8325 80° East 468 539 37,000  Level Salt Lake Center
05:47PM 38.9125 -115.6669 80° East 469 540 37,000  Level Salt Lake Center
05:48PM 38.9403 -115.4669 80° East 473 544 37,000  Level Salt Lake Center
05:49PM 38.9689 -115.3219 76° East 474 545 37,000  Level Salt Lake Center
05:50PM 39.0050 -115.1589 74° East 475 547 37,000  Level Salt Lake Center
05:52PM 39.0406 -114.9936 74° East 477 549 37,000  Level Salt Lake Center
05:53PM 39.0822 -114.7964 75° East 478 550 37,000  Level Salt Lake Center
05:54PM 39.1183 -114.6283 74° East 485 558 37,000  Level Salt Lake Center
05:55PM 39.1533 -114.4656 74° East 477 549 37,000  Level Salt Lake Center
05:56PM 39.1872 -114.3006 75° East 476 548 37,000  Level Salt Lake Center
05:57PM 39.2219 -114.1378 75° East 472 543 37,000  Level Salt Lake Center
05:58PM 39.2553 -113.9744 75° East 472 543 37,000  Level Salt Lake Center
05:59PM 39.2875 -113.8131 75° East 467 537 37,000  Level Salt Lake Center
06:00PM 39.3200 -113.6489 76° East 470 541 37,000  Level Salt Lake Center
06:01PM 39.3594 -113.4533 75° East 469 540 37,000  Level Salt Lake Center
06:02PM 39.3922 -113.2883 76° East 473 544 37,000  Level Salt Lake Center
06:03PM 39.4247 -113.1239 76° East 473 544 37,000  Level Salt Lake Center
06:04PM 39.4569 -112.9589 76° East 474 545 37,000  Level Salt Lake Center
06:05PM 39.4897 -112.7914 76° East 479 551 37,000  Level Salt Lake Center
06:06PM 39.5258 -112.6056 76° East 478 550 37,000  Level Salt Lake Center
06:07PM 39.5581 -112.4386 76° East 480 552 37,000  Level Salt Lake Center
06:08PM 39.5883 -112.2725 77° East 477 549 37,000  Level Salt Lake Center
06:09PM 39.6203 -112.1061 76° East 479 551 37,000  Level Salt Lake Center
06:10PM 39.6508 -111.9394 77° East 478 550 37,000  Level Salt Lake Center
06:11PM 39.6817 -111.7761 76° East 473 544 37,000  Level Salt Lake Center
06:12PM 39.7111 -111.6092 77° East 474 545 37,000  Level Salt Lake Center
06:13PM 39.7483 -111.4106 76° East 473 544 37,000  Level Salt Lake Center
06:14PM 39.7758 -111.2569 77° East 474 545 37,000  Level Salt Lake Center
06:15PM 39.8083 -111.0683 77° East 477 549 37,000  Level Salt Lake Center
06:16PM 39.8364 -110.9072 77° East 477 549 37,000  Level Salt Lake Center
06:17PM 39.8650 -110.7464 77° East 477 549 37,000  Level Salt Lake Center
06:18PM 39.8967 -110.5592 78° East 476 548 37,000  Level Salt Lake Center
06:19PM 39.9242 -110.3983 77° East 476 548 37,000  Level Salt Lake Center
06:20PM 39.9561 -110.2094 78° East 477 549 37,000  Level Salt Lake Center
06:21PM 39.9825 -110.0497 78° East 473 544 37,000  Level Salt Lake Center
06:22PM 40.0103 -109.8867 77° East 479 551 37,000  Level Salt Lake Center
06:23PM 40.0406 -109.6975 78° East 477 549 37,000  Level Salt Lake Center
06:24PM 40.0539 -109.6133 78° East 481 554 37,000  Level Denver Center
06:25PM 40.0806 -109.4483 78° East 483 556 37,000  Level Denver Center
06:26PM 40.1108 -109.2550 78° East 485 558 37,000  Level Denver Center
06:26PM 40.1250 -109.1742 77° East 487 560 37,000  Level Salt Lake Center
06:27PM 40.1339 -109.1164 79° East 487 560 37,000  Level Denver Center
06:28PM 40.1692 -108.8897 78° East 494 568 37,000  Level Denver Center
06:28PM 40.1825 -108.8078 78° East 494 568 37,000  Level Salt Lake Center
06:29PM 40.2089 -108.6350 79° East 502 578 37,000  Level Salt Lake Center
06:30PM 40.2222 -108.5453 79° East 505 581 37,000  Level Denver Center
06:31PM 40.2525 -108.3417 79° East 508 585 37,000  Level Denver Center
06:32PM 40.2789 -108.1667 79° East 510 587 37,000  Level Denver Center
06:33PM 40.3089 -107.9633 79° East 509 586 37,000  Level Denver Center
06:34PM 40.3356 -107.7881 79° East 510 587 37,000  Level Denver Center
06:35PM 40.3589 -107.6147 80° East 507 583 37,000  Level Denver Center
06:36PM 40.3864 -107.4131 80° East 503 579 37,000  Level Denver Center
06:37PM 40.4219 -107.1822 78° East 506 582 37,000  Level Denver Center
06:38PM 40.4464 -107.0064 80° East 510 587 37,000  Level Denver Center
06:39PM 40.4722 -106.8169 80° East 515 593 37,000  Level Denver Center
06:40PM 40.4992 -106.6289 79° East 520 598 37,000  Level Denver Center
06:42PM 40.5233 -106.4394 80° East 522 601 37,000  Level Denver Center
06:43PM 40.5519 -106.2297 80° East 522 601 37,000  Level Denver Center
06:44PM 40.5728 -106.0583 81° East 524 603 37,000  Level Denver Center
06:45PM 40.6014 -105.8369 80° East 522 601 37,000  Level Denver Center
06:46PM 40.6247 -105.6458 81° East 522 601 37,000  Level Denver Center
06:47PM 40.6489 -105.4564 80° East 521 600 37,000  Level Denver Center
06:48PM 40.6733 -105.2636 80° East 525 604 37,000  Level Denver Center
06:49PM 40.6967 -105.0733 81° East 521 600 37,000  Level Denver Center
06:50PM 40.7183 -104.8858 81° East 515 593 37,000 60 Level Denver Center
06:51PM 40.7406 -104.6975 81° East 514 592 37,200 780 Climbing Denver Center
06:52PM 40.7617 -104.5119 81° East 508 585 38,600 840 Climbing Denver Center
06:53PM 40.7842 -104.3261 81° East 506 582 39,000 180 Climbing Denver Center
06:54PM 40.8319 -104.1469 71° East 511 588 39,000  Level Denver Center
06:55PM 40.8797 -103.9675 71° East 511 588 39,100  Climbing Denver Center
06:56PM 40.9269 -103.7875 71° East 512 589 39,000 -60 Descending Denver Center
06:57PM 40.9739 -103.5742 74° East 519 597 39,000  Level Denver Center
06:58PM 40.9897 -103.4128 83° East 499 574 39,000  Level Denver Center
06:59PM 41.0103 -103.2097 82° East 500 575 39,000  Level Denver Center
07:00PM 41.0258 -103.0378 83° East 496 571 39,000  Level Denver Center
07:01PM 41.0439 -102.8514 83° East 505 581 39,000  Level Denver Center
07:02PM 41.0622 -102.6450 83° East 505 581 39,000  Level Denver Center
07:03PM 41.0775 -102.4669 83° East 507 583 39,000  Level Denver Center
07:04PM 41.0964 -102.2581 83° East 514 592 39,000  Level Denver Center
07:05PM 41.1122 -102.0764 83° East 519 597 39,000  Level Denver Center
07:06PM 41.1292 -101.8639 84° East 519 597 39,000  Level Denver Center
07:07PM 41.1442 -101.6814 84° East 520 598 39,000  Level Denver Center
07:08PM 41.1592 -101.4978 84° East 523 602 39,000  Level Denver Center
07:09PM 41.1753 -101.2831 84° East 523 602 39,000  Level Denver Center
07:10PM 41.1897 -101.1022 84° East 514 592 39,000 -1,020 Level Denver Center
07:11PM 41.2053 -100.8969 84° East 500 575 37,000 -1,020 Descending Denver Center
07:12PM 41.2181 -100.7147 85° East 511 588 37,000  Level Denver Center
07:13PM 41.2319 -100.5317 84° East 516 594 37,000  Level Denver Center
07:14PM 41.2472 -100.3178 85° East 518 596 37,000  Level Denver Center
07:15PM 41.2597 -100.1364 85° East 515 593 37,000  Level Denver Center
07:16PM 41.2736 -99.9258 85° East 513 590 37,000  Level Denver Center
07:18PM 41.2861 -99.7453 85° East 512 589 37,000  Level Denver Center
07:19PM 41.3000 -99.5336 85° East 513 590 37,000  Level Denver Center
07:20PM 41.3106 -99.3428 86° East 512 589 37,000  Level Denver Center
07:21PM 41.3217 -99.1550 85° East 508 585 37,000  Level Denver Center
07:22PM 41.3331 -98.9631 85° East 512 589 37,000  Level Denver Center
07:23PM 41.3444 -98.7678 85° East 516 594 37,000  Level Denver Center
07:23PM 41.3503 -98.6883 84° East 515 593 37,000  Level Minneapolis Center
07:24PM 41.3594 -98.4975 86° East 518 596 37,000  Level Minneapolis Center
07:25PM 41.3686 -98.3033 86° East 519 597 37,000  Level Minneapolis Center
07:26PM 41.3789 -98.1142 86° East 514 592 37,000  Level Minneapolis Center
07:27PM 41.3875 -97.9294 86° East 510 587 37,000  Level Minneapolis Center
07:28PM 41.3956 -97.7414 87° East 510 587 37,000  Level Minneapolis Center
07:29PM 41.4047 -97.5531 86° East 509 586 37,000  Level Minneapolis Center
07:30PM 41.4136 -97.3650 86° East 509 586 37,000  Level Minneapolis Center
07:31PM 41.4231 -97.1394 87° East 509 586 37,000  Level Minneapolis Center
07:32PM 41.4306 -96.9503 87° East 510 587 37,000  Level Minneapolis Center
07:33PM 41.4378 -96.7600 87° East 513 590 37,000  Level Minneapolis Center
07:34PM 41.4453 -96.5686 87° East 515 593 37,000  Level Minneapolis Center
07:35PM 41.4528 -96.3756 87° East 518 596 37,000  Level Minneapolis Center
07:36PM 41.4581 -96.1769 88° East 524 603 37,000  Level Minneapolis Center
07:37PM 41.4650 -95.9839 87° East 521 600 37,000  Level Minneapolis Center
07:38PM 41.4706 -95.7919 88° East 519 597 37,000  Level Minneapolis Center
07:39PM 41.4756 -95.5881 88° East 522 601 37,000  Level Minneapolis Center
07:41PM 41.4803 -95.3956 88° East 520 598 37,000  Level Minneapolis Center
07:42PM 41.4872 -95.2033 87° East 520 598 37,000  Level Minneapolis Center
07:43PM 41.4917 -94.9736 88° East 518 596 37,000  Level Minneapolis Center
07:44PM 41.4947 -94.7819 89° East 517 595 37,000  Level Minneapolis Center
07:45PM 41.4989 -94.5908 88° East 514 592 37,000  Level Minneapolis Center
07:46PM 41.5014 -94.3986 89° East 518 596 37,000  Level Minneapolis Center
07:47PM 41.5039 -94.2161 89° East 525 604 37,000  Level Minneapolis Center
07:48PM 41.5078 -94.0222 88° East 526 605 37,000  Level Minneapolis Center
07:49PM 41.5100 -93.7892 89° East 527 606 37,000  Level Minneapolis Center
07:50PM 41.5128 -93.5928 89° East 530 610 37,000  Level Minneapolis Center
07:51PM 41.5167 -93.3953 88° East 534 615 37,000  Level Minneapolis Center
07:52PM 41.5039 -93.2047 95° East 523 602 37,000  Level Minneapolis Center
07:53PM 41.4886 -93.0119 96° East 522 601 37,000 -300 Level Minneapolis Center
07:54PM 41.4728 -92.8225 96° East 521 600 36,500 -780 Descending Minneapolis Center
07:55PM 41.4575 -92.6317 96° East 520 598 35,500 -780 Descending Minneapolis Center
07:56PM 41.4383 -92.4017 96° East 521 600 35,000 -420 Descending Minneapolis Center
07:57PM 41.4208 -92.2117 97° East 522 601 34,700 -600 Descending Minneapolis Center
07:58PM 41.4042 -92.0250 97° East 518 596 33,800 -960 Descending Chicago Center
07:59PM 41.3872 -91.8333 97° East 525 604 32,800 -960 Descending Chicago Center
08:00PM 41.3697 -91.6433 97° East 525 604 31,900 -960 Descending Chicago Center
08:01PM 41.3517 -91.4531 97° East 524 603 30,900 -960 Descending Chicago Center
08:02PM 41.3336 -91.2567 97° East 530 610 30,000 -1,080 Descending Chicago Center
08:03PM 41.3144 -91.0675 98° East 522 601 28,700 -2,580 Descending Chicago Center
08:04PM 41.2914 -90.8369 98° East 522 601 24,700 -2,340 Descending Chicago Center
08:05PM 41.2739 -90.6506 97° East 514 592 23,900 -1,740 Descending Chicago Center
08:06PM 41.2547 -90.4689 98° East 501 577 21,200 -2,520 Descending Chicago Center
08:07PM 41.2361 -90.2950 98° East 477 549 18,800 -2,520 Descending Chicago Center
08:08PM 41.2192 -90.1311 98° East 450 518 16,000 -1,920 Descending Chicago Center
08:09PM 41.2028 -89.9703 98° East 439 505 14,900 -540 Descending Chicago Center
08:10PM 41.1850 -89.8125 98° East 431 496 14,900 -300 Level Chicago Center
08:11PM 41.1672 -89.6511 98° East 438 504 14,400 -840 Descending Chicago Center
08:12PM 41.1694 -89.4594 89° East 434 499 13,200 -1,080 Descending Chicago Center
08:13PM 41.1800 -89.3003 85° East 432 497 12,200 -1,020 Descending Chicago Center
08:14PM 41.1911 -89.1356 85° East 429 494 11,200 -1,020 Descending Chicago Center
08:15PM 41.2003 -88.9839 85° East 420 483 10,200 -660 Descending Chicago Center
08:16PM 41.2089 -88.8333 86° East 413 475 9,900 -180 Descending Chicago Center
08:18PM 41.2619 -88.7147 59° Northeast 385 443 9,900 -480 Level Chicago Center
08:19PM 41.3242 -88.6278 46° Northeast 328 377 9,000 -1,680 Descending Chicago Center
08:20PM 41.3931 -88.5328 46° Northeast 303 349 6,500 -1,500 Descending Chicago Center
08:21PM 41.4339 -88.4417 59° Northeast 292 336 5,900 -300 Descending Chicago Center
08:22PM 41.4722 -88.3500 61° Northeast 286 329 5,900  Level Chicago Center
08:23PM 41.5114 -88.2564 61° Northeast 287 330 5,900  Level Chicago Center
08:24PM 41.5494 -88.1639 61° Northeast 286 329 5,900 -300 Level Chicago Center
08:25PM 41.5861 -88.0781 60° Northeast 272 313 5,400 -780 Descending Chicago Center
08:26PM 41.6261 -87.9819 61° Northeast 256 295 4,300 -840 Descending Chicago Center
08:27PM 41.6606 -87.9061 59° Northeast 246 283 3,700 -840 Descending Chicago Center
08:28PM 41.7028 -87.8547 42° Northeast 220 253 2,600 -960 Descending Chicago Center
08:29PM 41.7353 -87.8175 41° Northeast 182 209 1,800 -780 Descending Chicago Center
08:30PM 41.7594 -87.7847 45° Northeast 146 168 1,100 -540 Descending Chicago Center
08:31PM 41.7892 -87.7458 44° Northeast 139 160 800 -300 Descending Chicago Center